createdAt,value
2022-08-19T00:02:18.087Z,10.82
2022-08-19T00:05:21.328Z,8.95
2022-08-19T00:08:23.373Z,10.07
2022-08-19T00:11:26.446Z,9.25
2022-08-19T00:14:32.783Z,17.48
2022-08-19T00:17:34.820Z,10.32
2022-08-19T00:20:37.542Z,14.60
2022-08-19T00:23:39.160Z,13.65
2022-08-19T00:26:42.180Z,12.27
2022-08-19T00:29:43.812Z,11.35
2022-08-19T00:32:46.152Z,11.48
2022-08-19T00:35:47.898Z,12.15
2022-08-19T00:38:57.970Z,13.48
2022-08-19T00:41:59.705Z,15.77
2022-08-19T00:45:01.774Z,8.38
2022-08-19T00:48:14.809Z,16.45
2022-08-19T00:51:17.322Z,11.15
2022-08-19T00:54:24.860Z,9.98
2022-08-19T00:57:39.872Z,12.15
2022-08-19T01:00:42.346Z,11.93
2022-08-19T01:03:56.564Z,13.85
2022-08-19T01:07:00.323Z,6.53
2022-08-19T01:10:02.769Z,8.40
2022-08-19T01:13:05.959Z,12.05
2022-08-19T01:16:11.213Z,11.93
2022-08-19T01:19:27.295Z,11.05
2022-08-19T01:22:34.066Z,11.02
2022-08-19T01:25:55.429Z,12.68
2022-08-19T01:29:00.820Z,12.25
2022-08-19T01:32:03.246Z,13.15
2022-08-19T01:35:05.594Z,14.27
2022-08-19T01:38:11.201Z,8.05
2022-08-19T01:41:14.237Z,9.60
2022-08-19T01:44:18.755Z,10.23
2022-08-19T01:47:21.133Z,10.55
2022-08-19T01:50:23.196Z,11.88
2022-08-19T01:53:26.718Z,14.27
2022-08-19T01:56:35.425Z,11.57
2022-08-19T01:59:37.559Z,18.25
2022-08-19T02:02:39.511Z,19.67
2022-08-19T02:05:42.951Z,9.93
2022-08-19T02:08:47.264Z,12.68
2022-08-19T02:11:49.761Z,9.13
2022-08-19T02:14:51.427Z,11.85
2022-08-19T02:17:53.144Z,11.68
2022-08-19T02:20:55.107Z,12.40
2022-08-19T02:23:57.474Z,16.98
2022-08-19T02:26:59.848Z,9.18
2022-08-19T02:30:02.220Z,11.35
2022-08-19T02:33:04.109Z,8.82
2022-08-19T02:36:07.690Z,16.33
2022-08-19T02:39:10.775Z,10.35
2022-08-19T02:42:13.432Z,11.35
2022-08-19T02:45:15.691Z,13.75
2022-08-19T02:48:21.880Z,12.98
2022-08-19T02:51:32.422Z,12.52
2022-08-19T02:54:34.721Z,8.10
2022-08-19T02:57:36.837Z,10.40
2022-08-19T03:00:44.716Z,15.10
2022-08-19T03:03:47.500Z,9.32
2022-08-19T03:06:50.335Z,9.93
2022-08-19T03:09:51.951Z,17.60
2022-08-19T03:12:53.890Z,10.50
2022-08-19T03:15:55.942Z,8.57
2022-08-19T03:19:01.183Z,10.40
2022-08-19T03:22:03.688Z,12.05
2022-08-19T03:25:05.788Z,11.73
2022-08-19T03:28:08.421Z,7.37
2022-08-19T03:31:44.719Z,17.15
2022-08-19T03:34:39.287Z,12.77
2022-08-19T03:37:41.027Z,16.27
2022-08-19T03:40:44.000Z,12.25
2022-08-19T03:43:50.772Z,14.20
2022-08-19T03:46:58.795Z,8.60
2022-08-19T03:50:00.661Z,11.48
2022-08-19T03:53:02.629Z,12.00
2022-08-19T03:56:04.547Z,12.65
2022-08-19T03:59:08.998Z,12.00
2022-08-19T04:02:12.897Z,12.15
2022-08-19T04:05:16.201Z,12.40
2022-08-19T04:08:21.157Z,11.43
2022-08-19T04:11:43.190Z,10.48
2022-08-19T04:14:45.793Z,12.88
2022-08-19T04:17:47.684Z,10.38
2022-08-19T04:20:50.740Z,9.93
2022-08-19T04:23:53.697Z,8.25
2022-08-19T04:26:57.624Z,9.88
2022-08-19T04:29:59.281Z,14.00
2022-08-19T04:33:00.912Z,8.60
2022-08-19T04:36:02.749Z,8.48
2022-08-19T04:39:08.704Z,35.30
2022-08-19T04:42:30.848Z,11.27
2022-08-19T04:45:43.518Z,7.93
2022-08-19T04:48:49.647Z,10.38
2022-08-19T04:51:55.269Z,18.65
2022-08-19T04:54:57.199Z,13.43
2022-08-19T04:57:58.829Z,8.50
2022-08-19T05:01:01.915Z,9.93
2022-08-19T05:04:06.583Z,8.93
2022-08-19T05:07:08.967Z,9.90
2022-08-19T05:10:11.082Z,8.52
2022-08-19T05:13:12.912Z,17.83
2022-08-19T05:16:15.549Z,14.57
2022-08-19T05:19:35.834Z,12.27
2022-08-19T05:22:38.613Z,9.18
2022-08-19T05:25:41.439Z,10.43
2022-08-19T05:28:43.414Z,11.57
2022-08-19T05:31:46.373Z,14.90
2022-08-19T05:34:48.220Z,10.45
2022-08-19T05:37:49.896Z,11.65
2022-08-19T05:40:57.088Z,14.15
2022-08-19T05:44:01.833Z,8.05
2022-08-19T05:47:05.803Z,6.53
2022-08-19T05:50:07.901Z,11.73
2022-08-19T05:53:09.987Z,9.05
2022-08-19T05:56:17.060Z,13.55
2022-08-19T05:59:22.518Z,8.45
2022-08-19T06:02:32.013Z,14.20
2022-08-19T06:05:33.895Z,12.25
2022-08-19T06:08:51.710Z,11.65
2022-08-19T06:11:56.955Z,9.13
2022-08-19T06:15:01.023Z,12.32
2022-08-19T06:18:03.460Z,10.50
2022-08-19T06:21:05.531Z,8.10
2022-08-19T06:24:09.861Z,9.50
2022-08-19T06:27:11.509Z,11.23
2022-08-19T06:30:13.629Z,12.30
2022-08-19T06:33:15.263Z,12.57
2022-08-19T06:36:32.814Z,7.68
2022-08-19T06:39:39.181Z,7.65
2022-08-19T06:42:49.467Z,6.97
2022-08-19T06:45:56.288Z,16.67
2022-08-19T06:48:59.082Z,10.15
2022-08-19T06:52:01.882Z,10.48
2022-08-19T06:55:06.160Z,10.70
2022-08-19T06:58:08.596Z,8.38
2022-08-19T07:01:11.447Z,9.63
2022-08-19T07:04:14.964Z,10.20
2022-08-19T07:07:19.672Z,9.48
2022-08-19T07:10:22.163Z,10.23
2022-08-19T07:13:25.395Z,6.65
2022-08-19T07:16:29.465Z,10.75
2022-08-19T07:19:32.532Z,11.12
2022-08-19T07:22:35.826Z,10.88
2022-08-19T07:25:39.302Z,8.38
2022-08-19T07:28:45.985Z,10.55
2022-08-19T07:31:48.970Z,6.70
2022-08-19T07:34:53.598Z,8.02
2022-08-19T07:37:55.408Z,7.03
2022-08-19T07:40:57.250Z,9.23
2022-08-19T07:44:04.723Z,11.15
2022-08-19T07:47:06.419Z,6.68
2022-08-19T07:50:12.361Z,10.60
2022-08-19T07:53:14.307Z,8.82
2022-08-19T07:56:16.269Z,9.90
2022-08-19T07:59:19.013Z,7.00
2022-08-19T08:02:20.671Z,6.93
2022-08-19T08:05:43.658Z,8.55
2022-08-19T08:09:04.402Z,7.87
2022-08-19T08:12:33.703Z,15.30
2022-08-19T08:15:42.599Z,9.15
2022-08-19T08:18:50.735Z,8.18
2022-08-19T08:22:00.676Z,5.18
2022-08-19T08:25:12.943Z,7.62
2022-08-19T08:28:18.155Z,7.28
2022-08-19T08:31:20.480Z,11.38
2022-08-19T08:34:22.401Z,7.62
2022-08-19T08:37:24.241Z,6.00
2022-08-19T08:40:46.874Z,12.68
2022-08-19T08:43:53.007Z,9.88
2022-08-19T08:46:59.805Z,7.62
2022-08-19T08:50:15.802Z,3.35
2022-08-19T08:53:29.243Z,5.57
2022-08-19T08:56:32.689Z,6.00
2022-08-19T08:59:38.766Z,8.02
2022-08-19T09:02:40.561Z,5.60
2022-08-19T09:06:20.517Z,6.90
2022-08-19T09:13:09.159Z,5.90
2022-08-19T09:16:18.182Z,6.47
2022-08-19T09:19:22.839Z,6.95
2022-08-19T09:22:26.143Z,6.85
2022-08-19T09:25:29.630Z,7.03
2022-08-19T09:28:32.618Z,8.43
2022-08-19T09:31:34.431Z,5.53
2022-08-19T09:34:38.045Z,6.68
2022-08-19T09:37:45.813Z,7.28
2022-08-19T09:40:47.439Z,4.20
2022-08-19T09:43:53.209Z,6.85
2022-08-19T09:46:55.110Z,3.83
2022-08-19T09:49:56.849Z,9.00
2022-08-19T09:53:00.197Z,6.97
2022-08-19T09:56:04.154Z,9.38
2022-08-19T09:59:06.038Z,5.60
2022-08-19T10:02:10.807Z,3.72
2022-08-19T10:05:31.920Z,8.90
2022-08-19T10:08:36.393Z,6.82
2022-08-19T10:11:46.861Z,9.80
2022-08-19T10:14:55.495Z,7.37
2022-08-19T10:17:58.717Z,6.93
2022-08-19T10:21:11.683Z,12.50
2022-08-19T10:24:13.619Z,4.10
2022-08-19T10:27:15.756Z,6.40
2022-08-19T10:30:17.966Z,13.70
2022-08-19T10:33:38.573Z,7.93
2022-08-19T10:36:55.867Z,7.12
2022-08-19T10:39:59.652Z,7.45
2022-08-19T10:43:01.410Z,7.70
2022-08-19T10:46:03.116Z,9.32
2022-08-19T10:49:06.773Z,8.27
2022-08-19T10:52:39.003Z,5.37
2022-08-19T10:55:59.793Z,4.80
2022-08-19T10:59:02.160Z,6.28
2022-08-19T11:02:06.750Z,9.10
2022-08-19T11:05:12.678Z,5.90
2022-08-19T11:08:21.202Z,11.02
2022-08-19T11:11:25.401Z,5.30
2022-08-19T11:14:27.035Z,12.63
2022-08-19T11:17:34.131Z,9.20
2022-08-19T11:20:35.803Z,7.93
2022-08-19T11:23:37.619Z,10.23
2022-08-19T11:26:42.157Z,6.93
2022-08-19T11:29:43.769Z,9.68
2022-08-19T11:32:49.244Z,11.05
2022-08-19T11:35:51.455Z,10.25
2022-08-19T11:38:54.047Z,10.02
2022-08-19T11:41:56.530Z,6.03
2022-08-19T11:44:58.350Z,16.92
2022-08-19T11:48:00.134Z,11.93
2022-08-19T11:51:07.211Z,12.20
2022-08-19T11:54:09.182Z,7.93
2022-08-19T11:57:10.812Z,7.68
2022-08-19T12:00:13.910Z,7.20
2022-08-19T12:03:15.813Z,7.62
2022-08-19T12:06:24.289Z,8.85
2022-08-19T12:09:26.038Z,13.85
2022-08-19T12:12:32.726Z,6.25
2022-08-19T12:15:39.234Z,8.90
2022-08-19T12:18:43.813Z,11.10
2022-08-19T12:21:45.512Z,7.05
2022-08-19T12:24:47.530Z,12.48
2022-08-19T12:27:57.317Z,8.38
2022-08-19T12:30:59.481Z,8.85
2022-08-19T12:34:03.590Z,9.30
2022-08-19T12:37:07.317Z,6.65
2022-08-19T12:40:09.738Z,5.32
2022-08-19T12:43:12.662Z,10.77
2022-08-19T12:46:15.873Z,10.85
2022-08-19T12:49:30.438Z,6.45
2022-08-19T12:52:43.469Z,7.22
2022-08-19T12:55:45.245Z,13.30
2022-08-19T12:58:48.605Z,5.15
2022-08-19T13:01:51.131Z,7.35
2022-08-19T13:04:52.925Z,6.95
2022-08-19T13:07:57.223Z,6.55
2022-08-19T13:10:59.334Z,13.40
2022-08-19T13:14:03.546Z,6.05
2022-08-19T13:17:05.309Z,8.60
2022-08-19T13:20:09.840Z,14.30
2022-08-19T13:23:11.543Z,7.70
2022-08-19T13:26:14.139Z,7.68
2022-08-19T13:29:34.708Z,7.25
2022-08-19T13:32:55.184Z,6.82
2022-08-19T13:36:01.646Z,5.87
2022-08-19T13:39:04.315Z,10.32
2022-08-19T13:42:07.210Z,14.75
2022-08-19T13:45:09.885Z,7.55
2022-08-19T13:48:11.681Z,6.00
2022-08-19T13:51:13.462Z,6.07
2022-08-19T13:54:15.206Z,7.62
2022-08-19T13:57:17.234Z,24.70
2022-08-19T14:00:20.159Z,6.15
2022-08-19T14:03:21.952Z,18.62
2022-08-19T14:06:24.181Z,7.03
2022-08-19T14:09:25.930Z,11.57
2022-08-19T14:12:28.800Z,9.02
2022-08-19T14:15:31.115Z,9.65
2022-08-19T14:18:32.933Z,7.80
2022-08-19T14:21:38.584Z,11.60
2022-08-19T14:24:43.239Z,9.60
2022-08-19T14:27:50.295Z,9.30
2022-08-19T14:30:56.626Z,8.15
2022-08-19T14:33:58.384Z,8.93
2022-08-19T14:37:00.623Z,9.73
2022-08-19T14:40:04.930Z,10.50
2022-08-19T14:43:06.679Z,10.35
2022-08-19T14:46:09.170Z,7.90
2022-08-19T14:49:12.296Z,13.20
2022-08-19T14:52:14.472Z,6.53
2022-08-19T14:55:18.218Z,8.10
2022-08-19T14:58:29.012Z,11.50
2022-08-19T15:01:32.015Z,9.77
2022-08-19T15:04:33.949Z,6.68
2022-08-19T15:07:35.735Z,16.85
2022-08-19T15:10:40.229Z,9.00
2022-08-19T15:13:42.447Z,12.10
2022-08-19T15:16:44.198Z,14.02
2022-08-19T15:19:47.094Z,6.07
2022-08-19T15:22:49.626Z,7.87
2022-08-19T15:25:55.962Z,7.53
2022-08-19T15:28:59.510Z,7.93
2022-08-19T15:32:01.587Z,5.20
2022-08-19T15:35:04.754Z,10.00
2022-08-19T15:38:07.843Z,8.38
2022-08-19T15:41:26.068Z,10.77
2022-08-19T15:44:27.994Z,12.05
2022-08-19T15:47:35.207Z,11.32
2022-08-19T15:50:39.601Z,8.20
2022-08-19T15:53:42.660Z,12.02
2022-08-19T15:57:02.860Z,8.95
2022-08-19T16:00:23.742Z,6.93
2022-08-19T16:03:47.372Z,11.57
2022-08-19T16:06:55.347Z,27.70
2022-08-19T16:09:57.109Z,35.50
2022-08-19T16:12:59.378Z,29.58
2022-08-19T16:16:01.103Z,36.17
2022-08-19T16:19:10.149Z,31.77
2022-08-19T16:22:12.190Z,24.50
2022-08-19T16:25:14.888Z,23.85
2022-08-19T16:28:16.629Z,23.95
2022-08-19T16:31:18.246Z,28.58
2022-08-19T16:34:20.169Z,11.18
2022-08-19T16:37:23.245Z,16.80
2022-08-19T16:40:25.253Z,24.27
2022-08-19T16:43:29.033Z,35.00
2022-08-19T16:46:30.661Z,36.78
2022-08-19T16:49:53.100Z,30.33
2022-08-19T16:52:54.827Z,26.95
2022-08-19T16:55:57.595Z,22.98
2022-08-19T16:59:02.446Z,15.82
2022-08-19T17:02:04.347Z,17.40
2022-08-19T17:05:10.186Z,14.87
2022-08-19T17:08:12.119Z,24.08
2022-08-19T17:11:18.479Z,18.55
2022-08-19T17:14:21.964Z,17.35
2022-08-19T17:17:28.349Z,25.27
2022-08-19T17:20:32.574Z,23.48
2022-08-19T17:23:36.677Z,12.43
2022-08-19T17:26:45.559Z,21.30
2022-08-19T17:29:47.411Z,11.90
2022-08-19T17:32:49.126Z,14.90
2022-08-19T17:35:50.860Z,20.00
2022-08-19T17:38:55.400Z,15.95
2022-08-19T17:41:57.416Z,22.58
2022-08-19T17:45:05.989Z,15.95
2022-08-19T17:48:09.247Z,18.40
2022-08-19T17:51:15.512Z,16.15
2022-08-19T17:54:19.493Z,17.48
2022-08-19T17:57:21.196Z,18.12
2022-08-19T18:00:23.222Z,13.75
2022-08-19T18:03:30.303Z,11.70
2022-08-19T18:06:32.071Z,18.95
2022-08-19T18:09:42.586Z,20.05
2022-08-19T18:12:44.606Z,11.70
2022-08-19T18:15:47.433Z,10.65
2022-08-19T18:18:49.661Z,16.35
2022-08-19T18:21:51.508Z,12.25
2022-08-19T18:24:54.108Z,24.25
2022-08-19T18:27:58.682Z,20.33
2022-08-19T18:31:01.454Z,21.02
2022-08-19T18:34:03.238Z,12.90
2022-08-19T18:37:05.225Z,23.52
2022-08-19T18:40:27.836Z,13.55
2022-08-19T18:43:47.930Z,17.65
2022-08-19T18:47:08.003Z,22.05
2022-08-19T18:50:10.242Z,17.95
2022-08-19T18:53:14.039Z,22.87
2022-08-19T18:56:19.021Z,20.85
2022-08-19T18:59:21.185Z,11.75
2022-08-19T19:02:27.810Z,13.88
2022-08-19T19:08:31.062Z,14.87
2022-08-19T19:11:37.345Z,16.27
2022-08-19T19:14:49.866Z,12.30
2022-08-19T19:17:52.095Z,19.25
2022-08-19T19:20:54.533Z,10.07
2022-08-19T19:23:56.404Z,17.15
2022-08-19T19:27:01.442Z,19.50
2022-08-19T19:30:03.658Z,15.70
2022-08-19T19:33:05.494Z,17.17
2022-08-19T19:36:07.904Z,14.82
2022-08-19T19:39:09.815Z,19.90
2022-08-19T19:42:19.670Z,15.32
2022-08-19T19:45:22.972Z,24.77
2022-08-19T19:48:24.976Z,19.58
2022-08-19T19:51:30.362Z,15.25
2022-08-19T19:54:37.939Z,22.42
2022-08-19T19:57:40.432Z,20.88
2022-08-19T20:00:42.220Z,16.30
2022-08-19T20:03:44.710Z,27.62
2022-08-19T20:06:47.165Z,21.15
2022-08-19T20:09:59.643Z,27.13
2022-08-19T20:13:03.185Z,15.48
2022-08-19T20:16:04.947Z,28.58
2022-08-19T20:19:07.685Z,21.80
2022-08-19T20:22:09.317Z,24.73
2022-08-19T20:25:15.117Z,17.42
2022-08-19T20:28:17.590Z,10.65
2022-08-19T20:31:19.614Z,18.35
2022-08-19T20:34:21.743Z,19.05
2022-08-19T20:37:23.483Z,18.17
2022-08-19T20:40:29.514Z,21.80
2022-08-19T20:43:31.678Z,19.67
2022-08-19T20:46:34.199Z,15.07
2022-08-19T20:49:35.894Z,17.80
2022-08-19T20:52:39.284Z,17.70
2022-08-19T20:55:45.204Z,20.37
2022-08-19T20:58:53.498Z,17.40
2022-08-19T21:01:57.656Z,18.87
2022-08-19T21:04:59.443Z,18.35
2022-08-19T21:08:04.663Z,17.80
2022-08-19T21:11:07.672Z,17.62
2022-08-19T21:14:09.540Z,18.02
2022-08-19T21:17:11.620Z,24.70
2022-08-19T21:20:13.505Z,25.92
2022-08-19T21:23:21.460Z,23.85
2022-08-19T21:26:24.409Z,14.65
2022-08-19T21:29:26.216Z,15.50
2022-08-19T21:32:27.973Z,18.83
2022-08-19T21:35:30.334Z,22.60
2022-08-19T21:38:32.064Z,22.65
2022-08-19T21:41:33.730Z,11.68
2022-08-19T21:44:37.637Z,14.55
2022-08-19T21:47:39.681Z,14.57
2022-08-19T21:50:42.721Z,12.15
2022-08-19T21:53:47.852Z,20.55
2022-08-19T21:56:50.498Z,13.05
2022-08-19T21:59:52.986Z,14.27
2022-08-19T22:02:55.825Z,11.02
2022-08-19T22:05:58.658Z,16.33
2022-08-19T22:09:00.420Z,16.02
2022-08-19T22:12:02.289Z,12.10
2022-08-19T22:15:07.295Z,14.23
2022-08-19T22:18:09.124Z,12.23
2022-08-19T22:21:12.107Z,11.68
2022-08-19T22:24:14.308Z,27.95
2022-08-19T22:27:16.275Z,12.18
2022-08-19T22:30:20.576Z,11.80
2022-08-19T22:33:22.942Z,11.63
2022-08-19T22:36:24.628Z,12.88
2022-08-19T22:39:26.350Z,9.43
2022-08-19T22:42:31.915Z,9.40
2022-08-19T22:48:38.627Z,10.60
2022-08-19T22:51:59.205Z,17.62
2022-08-19T22:55:04.663Z,11.50
2022-08-19T22:58:06.411Z,18.05
2022-08-19T23:01:08.477Z,13.02
2022-08-19T23:04:10.875Z,11.35
2022-08-19T23:07:12.857Z,10.10
2022-08-19T23:10:14.653Z,8.82
2022-08-19T23:13:31.760Z,12.88
2022-08-19T23:16:34.870Z,10.18
2022-08-19T23:19:38.539Z,11.75
2022-08-19T23:22:41.859Z,11.27
2022-08-19T23:25:43.493Z,9.25
2022-08-19T23:29:04.261Z,12.40
2022-08-19T23:32:07.175Z,11.48
2022-08-19T23:35:09.205Z,12.43
2022-08-19T23:38:10.848Z,7.30
2022-08-19T23:41:14.972Z,12.77
2022-08-19T23:44:17.465Z,15.32
2022-08-19T23:47:21.498Z,13.35
2022-08-19T23:50:26.931Z,15.05
2022-08-19T23:53:29.453Z,10.32
2022-08-19T23:56:31.068Z,14.52
2022-08-19T23:59:32.984Z,8.65
